createdAt,value
2023-02-15T00:00:07.400Z,1016.61
2023-02-15T00:01:07.353Z,1016.62
2023-02-15T00:02:07.422Z,1016.58
2023-02-15T00:03:07.359Z,1016.58
2023-02-15T00:04:07.258Z,1016.6
2023-02-15T00:05:07.228Z,1016.55
2023-02-15T00:06:07.192Z,1016.59
2023-02-15T00:07:07.154Z,1016.59
2023-02-15T00:08:07.118Z,1016.53
2023-02-15T00:09:07.080Z,1016.59
2023-02-15T00:10:07.046Z,1016.56
2023-02-15T00:11:07.016Z,1016.52
2023-02-15T00:12:06.978Z,1016.5
2023-02-15T00:13:06.944Z,1016.5
2023-02-15T00:14:06.923Z,1016.44
2023-02-15T00:15:06.885Z,1016.48
2023-02-15T00:16:06.848Z,1016.43
2023-02-15T00:17:06.807Z,1016.44
2023-02-15T00:18:06.772Z,1016.46
2023-02-15T00:19:06.765Z,1016.45
2023-02-15T00:20:06.706Z,1016.43
2023-02-15T00:21:06.673Z,1016.4
2023-02-15T00:22:06.638Z,1016.42
2023-02-15T00:23:06.605Z,1016.36
2023-02-15T00:24:06.570Z,1016.35
2023-02-15T00:25:06.535Z,1016.31
2023-02-15T00:26:06.500Z,1016.3
2023-02-15T00:27:06.470Z,1016.3
2023-02-15T00:28:06.436Z,1016.27
2023-02-15T00:29:06.399Z,1016.27
2023-02-15T00:30:06.380Z,1016.27
2023-02-15T00:31:06.424Z,1016.26
2023-02-15T00:32:06.294Z,1016.24
2023-02-15T00:33:06.261Z,1016.25
2023-02-15T00:34:06.226Z,1016.25
2023-02-15T00:35:06.218Z,1016.23
2023-02-15T00:36:06.158Z,1016.22
2023-02-15T00:37:06.124Z,1016.2
2023-02-15T00:38:06.088Z,1016.23
2023-02-15T00:39:06.059Z,1016.21
2023-02-15T00:40:06.025Z,1016.24
2023-02-15T00:41:05.988Z,1016.23
2023-02-15T00:42:05.955Z,1016.21
2023-02-15T00:43:05.921Z,1016.18
2023-02-15T00:44:05.887Z,1016.18
2023-02-15T00:45:05.852Z,1016.15
2023-02-15T00:46:05.880Z,1016.16
2023-02-15T00:47:05.949Z,1016.22
2023-02-15T00:48:05.746Z,1016.22
2023-02-15T00:49:05.720Z,1016.24
2023-02-15T00:50:05.678Z,1016.28
2023-02-15T00:51:05.675Z,1016.26
2023-02-15T00:52:05.609Z,1016.23
2023-02-15T00:53:05.577Z,1016.25
2023-02-15T00:54:05.543Z,1016.23
2023-02-15T00:55:05.506Z,1016.22
2023-02-15T00:56:05.475Z,1016.21
2023-02-15T00:57:05.439Z,1016.24
2023-02-15T00:58:05.404Z,1016.22
2023-02-15T00:59:05.379Z,1016.23
2023-02-15T01:00:05.340Z,1016.23
2023-02-15T01:01:05.345Z,1016.23
2023-02-15T01:02:05.266Z,1016.23
2023-02-15T01:03:05.232Z,1016.21
2023-02-15T01:04:05.234Z,1016.2
2023-02-15T01:05:05.189Z,1016.25
2023-02-15T01:06:05.137Z,1016.26
2023-02-15T01:07:05.124Z,1016.22
2023-02-15T01:08:05.062Z,1016.24
2023-02-15T01:09:05.037Z,1016.22
2023-02-15T01:10:04.995Z,1016.28
2023-02-15T01:11:04.963Z,1016.27
2023-02-15T01:12:04.924Z,1016.25
2023-02-15T01:13:04.893Z,1016.27
2023-02-15T01:14:04.855Z,1016.27
2023-02-15T01:15:04.826Z,1016.23
2023-02-15T01:16:05.394Z,1016.26
2023-02-15T01:17:04.752Z,1016.26
2023-02-15T01:18:04.719Z,1016.27
2023-02-15T01:19:04.689Z,1016.25
2023-02-15T01:20:04.648Z,1016.27
2023-02-15T01:21:04.616Z,1016.25
2023-02-15T01:22:04.593Z,1016.28
2023-02-15T01:23:04.567Z,1016.27
2023-02-15T01:24:04.526Z,1016.26
2023-02-15T01:25:04.476Z,1016.24
2023-02-15T01:26:04.511Z,1016.22
2023-02-15T01:27:04.406Z,1016.27
2023-02-15T01:28:04.376Z,1016.24
2023-02-15T01:29:04.337Z,1016.23
2023-02-15T01:30:04.315Z,1016.25
2023-02-15T01:31:04.393Z,1016.22
2023-02-15T01:32:04.336Z,1016.2
2023-02-15T01:33:04.199Z,1016.16
2023-02-15T01:34:04.166Z,1016.2
2023-02-15T01:35:04.129Z,1016.18
2023-02-15T01:36:04.095Z,1016.2
2023-02-15T01:37:04.072Z,1016.16
2023-02-15T01:38:04.028Z,1016.16
2023-02-15T01:39:04.024Z,1016.17
2023-02-15T01:40:03.957Z,1016.14
2023-02-15T01:41:03.921Z,1016.15
2023-02-15T01:42:03.890Z,1016.19
2023-02-15T01:43:03.851Z,1016.17
2023-02-15T01:44:03.821Z,1016.13
2023-02-15T01:45:03.791Z,1016.08
2023-02-15T01:46:04.100Z,1016.15
2023-02-15T01:47:03.713Z,1016.09
2023-02-15T01:48:03.680Z,1016.13
2023-02-15T01:49:03.650Z,1016.14
2023-02-15T01:50:03.612Z,1016.11
2023-02-15T01:51:03.949Z,1016.06
2023-02-15T01:52:03.539Z,1016.05
2023-02-15T01:53:03.511Z,1016.07
2023-02-15T01:54:03.467Z,1016.09
2023-02-15T01:55:03.643Z,1016.07
2023-02-15T01:56:03.723Z,1016.07
2023-02-15T01:57:03.367Z,1016.04
2023-02-15T01:58:03.339Z,1016.03
2023-02-15T01:59:03.293Z,1016.01
2023-02-15T02:00:03.270Z,1015.94
2023-02-15T02:01:03.222Z,1015.89
2023-02-15T02:02:03.190Z,1015.9
2023-02-15T02:03:03.180Z,1015.88
2023-02-15T02:04:03.118Z,1015.87
2023-02-15T02:05:03.087Z,1015.87
2023-02-15T02:06:03.245Z,1015.85
2023-02-15T02:07:03.013Z,1015.8
2023-02-15T02:08:02.976Z,1015.87
2023-02-15T02:09:02.943Z,1015.87
2023-02-15T02:10:02.910Z,1015.86
2023-02-15T02:11:02.903Z,1015.85
2023-02-15T02:12:02.838Z,1015.79
2023-02-15T02:13:02.804Z,1015.78
2023-02-15T02:14:02.773Z,1015.76
2023-02-15T02:15:02.753Z,1015.76
2023-02-15T02:16:03.170Z,1015.74
2023-02-15T02:17:02.683Z,1015.74
2023-02-15T02:18:02.629Z,1015.72
2023-02-15T02:19:02.593Z,1015.67
2023-02-15T02:20:02.562Z,1015.65
2023-02-15T02:21:02.532Z,1015.63
2023-02-15T02:22:02.494Z,1015.63
2023-02-15T02:23:02.462Z,1015.59
2023-02-15T02:24:02.423Z,1015.55
2023-02-15T02:25:02.386Z,1015.57
2023-02-15T02:26:02.626Z,1015.55
2023-02-15T02:27:02.342Z,1015.59
2023-02-15T02:28:02.280Z,1015.62
2023-02-15T02:29:02.248Z,1015.59
2023-02-15T02:30:02.299Z,1015.61
2023-02-15T02:31:02.327Z,1015.6
2023-02-15T02:32:02.205Z,1015.58
2023-02-15T02:33:02.108Z,1015.53
2023-02-15T02:34:02.074Z,1015.49
2023-02-15T02:35:02.037Z,1015.51
2023-02-15T02:36:02.309Z,1015.52
2023-02-15T02:37:01.968Z,1015.47
2023-02-15T02:38:01.931Z,1015.49
2023-02-15T02:39:01.900Z,1015.45
2023-02-15T02:40:01.862Z,1015.37
2023-02-15T02:41:01.831Z,1015.35
2023-02-15T02:42:01.793Z,1015.37
2023-02-15T02:43:01.792Z,1015.37
2023-02-15T02:44:01.729Z,1015.42
2023-02-15T02:45:01.703Z,1015.38
2023-02-15T02:46:01.899Z,1015.4
2023-02-15T02:47:01.617Z,1015.37
2023-02-15T02:48:01.584Z,1015.41
2023-02-15T02:49:01.550Z,1015.41
2023-02-15T02:50:01.535Z,1015.42
2023-02-15T02:51:01.489Z,1015.39
2023-02-15T02:52:01.445Z,1015.37
2023-02-15T02:53:01.412Z,1015.35
2023-02-15T02:54:01.376Z,1015.35
2023-02-15T02:55:01.344Z,1015.36
2023-02-15T02:56:01.579Z,1015.34
2023-02-15T02:57:01.271Z,1015.31
2023-02-15T02:58:01.236Z,1015.29
2023-02-15T02:59:01.226Z,1015.26
2023-02-15T03:00:01.165Z,1015.3
2023-02-15T03:01:01.130Z,1015.25
2023-02-15T03:02:01.140Z,1015.28
2023-02-15T03:03:01.078Z,1015.26
2023-02-15T03:04:01.027Z,1015.21
2023-02-15T03:05:00.991Z,1015.24
2023-02-15T03:06:01.257Z,1015.22
2023-02-15T03:07:00.920Z,1015.2
2023-02-15T03:08:00.889Z,1015.17
2023-02-15T03:09:00.853Z,1015.16
2023-02-15T03:10:00.818Z,1015.22
2023-02-15T03:11:00.783Z,1015.23
2023-02-15T03:12:00.749Z,1015.22
2023-02-15T03:13:00.715Z,1015.17
2023-02-15T03:14:00.685Z,1015.18
2023-02-15T03:15:00.676Z,1015.16
2023-02-15T03:16:01.065Z,1015.19
2023-02-15T03:17:00.578Z,1015.17
2023-02-15T03:18:00.543Z,1015.15
2023-02-15T03:19:00.508Z,1015.17
2023-02-15T03:20:00.475Z,1015.19
2023-02-15T03:21:00.435Z,1015.13
2023-02-15T03:22:00.403Z,1015.11
2023-02-15T03:23:00.366Z,1015.15
2023-02-15T03:24:00.335Z,1015.14
2023-02-15T03:25:00.296Z,1015.12
2023-02-15T03:26:00.518Z,1015.11
2023-02-15T03:27:00.227Z,1015.11
2023-02-15T03:28:00.195Z,1015.12
2023-02-15T03:29:00.155Z,1015.11
2023-02-15T03:30:00.215Z,1015.08
2023-02-15T03:31:00.261Z,1015.13
2023-02-15T03:32:00.188Z,1015.06
2023-02-15T03:33:00.015Z,1015.1
2023-02-15T03:33:59.993Z,1015.09
2023-02-15T03:34:59.947Z,1015.11
2023-02-15T03:36:00.340Z,1015.11
2023-02-15T03:36:59.877Z,1015.11
2023-02-15T03:37:59.845Z,1015.11
2023-02-15T03:38:59.813Z,1015.1
2023-02-15T03:39:59.772Z,1015.14
2023-02-15T03:40:59.737Z,1015.1
2023-02-15T03:41:59.700Z,1015.06
2023-02-15T03:42:59.666Z,1015.06
2023-02-15T03:43:59.645Z,1015.08
2023-02-15T03:44:59.606Z,1015.03
2023-02-15T03:45:59.902Z,1015.05
2023-02-15T03:46:59.627Z,1015.05
2023-02-15T03:47:59.486Z,1015.04
2023-02-15T03:48:59.456Z,1015.04
2023-02-15T03:49:59.416Z,1015.04
2023-02-15T03:50:59.385Z,1015
2023-02-15T03:51:59.352Z,1015
2023-02-15T03:52:59.328Z,1015
2023-02-15T03:53:59.276Z,1015
2023-02-15T03:54:59.244Z,1015.04
2023-02-15T03:55:59.252Z,1015.04
2023-02-15T03:56:59.220Z,1015.02
2023-02-15T03:57:59.136Z,1015.01
2023-02-15T03:58:59.098Z,1015.06
2023-02-15T03:59:59.062Z,1015.06
2023-02-15T04:00:59.096Z,1015.05
2023-02-15T04:01:58.994Z,1015.03
2023-02-15T04:02:59.033Z,1015.03
2023-02-15T04:03:58.934Z,1015.02
2023-02-15T04:04:58.886Z,1015.04
2023-02-15T04:05:59.031Z,1015.01
2023-02-15T04:06:58.818Z,1015.03
2023-02-15T04:07:58.778Z,1015.08
2023-02-15T04:08:58.749Z,1015.02
2023-02-15T04:09:58.710Z,1015.08
2023-02-15T04:10:58.683Z,1015.06
2023-02-15T04:11:58.635Z,1015.06
2023-02-15T04:12:58.602Z,1014.99
2023-02-15T04:13:58.565Z,1015.02
2023-02-15T04:14:58.550Z,1015.01
2023-02-15T04:15:58.548Z,1014.99
2023-02-15T04:16:58.459Z,1015.02
2023-02-15T04:17:58.423Z,1015.04
2023-02-15T04:18:58.418Z,1015.04
2023-02-15T04:19:58.350Z,1014.99
2023-02-15T04:20:58.315Z,1015.01
2023-02-15T04:21:58.277Z,1014.99
2023-02-15T04:22:58.244Z,1014.97
2023-02-15T04:23:58.206Z,1014.99
2023-02-15T04:24:58.180Z,1014.96
2023-02-15T04:25:58.138Z,1014.95
2023-02-15T04:26:58.099Z,1014.93
2023-02-15T04:27:58.064Z,1014.94
2023-02-15T04:28:58.026Z,1014.93
2023-02-15T04:29:58.040Z,1014.97
2023-02-15T04:30:57.968Z,1014.95
2023-02-15T04:31:57.972Z,1015.01
2023-02-15T04:32:57.887Z,1014.99
2023-02-15T04:33:57.851Z,1014.99
2023-02-15T04:34:57.837Z,1014.98
2023-02-15T04:35:57.793Z,1014.97
2023-02-15T04:36:57.740Z,1014.99
2023-02-15T04:37:57.708Z,1014.97
2023-02-15T04:38:57.669Z,1014.98
2023-02-15T04:39:57.635Z,1015
2023-02-15T04:40:57.597Z,1014.99
2023-02-15T04:41:57.563Z,1014.98
2023-02-15T04:42:57.538Z,1014.96
2023-02-15T04:43:57.493Z,1014.94
2023-02-15T04:44:57.454Z,1014.97
2023-02-15T04:45:57.451Z,1014.96
2023-02-15T04:46:57.383Z,1014.99
2023-02-15T04:47:57.358Z,1014.99
2023-02-15T04:48:57.315Z,1014.95
2023-02-15T04:49:58.150Z,1014.99
2023-02-15T04:50:57.266Z,1014.95
2023-02-15T04:51:57.205Z,1015.01
2023-02-15T04:52:57.193Z,1014.95
2023-02-15T04:53:57.135Z,1014.96
2023-02-15T04:54:57.097Z,1014.99
2023-02-15T04:55:57.062Z,1014.98
2023-02-15T04:56:57.025Z,1014.96
2023-02-15T04:57:56.992Z,1014.92
2023-02-15T04:58:56.954Z,1014.95
2023-02-15T04:59:56.920Z,1014.93
2023-02-15T05:00:56.924Z,1014.91
2023-02-15T05:01:56.850Z,1014.85
2023-02-15T05:02:56.811Z,1014.88
2023-02-15T05:03:56.827Z,1014.91
2023-02-15T05:04:56.739Z,1014.85
2023-02-15T05:05:56.705Z,1014.83
2023-02-15T05:06:56.692Z,1014.8
2023-02-15T05:07:56.636Z,1014.85
2023-02-15T05:08:56.595Z,1014.83
2023-02-15T05:09:56.561Z,1014.82
2023-02-15T05:10:56.523Z,1014.84
2023-02-15T05:11:56.490Z,1014.84
2023-02-15T05:12:56.459Z,1014.85
2023-02-15T05:13:56.417Z,1014.81
2023-02-15T05:14:56.380Z,1014.78
2023-02-15T05:15:56.346Z,1014.81
2023-02-15T05:16:56.377Z,1014.79
2023-02-15T05:17:56.272Z,1014.76
2023-02-15T05:18:56.237Z,1014.76
2023-02-15T05:19:56.200Z,1014.78
2023-02-15T05:20:56.172Z,1014.8
2023-02-15T05:21:56.131Z,1014.77
2023-02-15T05:22:56.117Z,1014.75
2023-02-15T05:23:56.057Z,1014.75
2023-02-15T05:24:56.023Z,1014.75
2023-02-15T05:25:55.985Z,1014.73
2023-02-15T05:26:55.952Z,1014.72
2023-02-15T05:27:55.916Z,1014.76
2023-02-15T05:28:55.901Z,1014.75
2023-02-15T05:29:55.925Z,1014.71
2023-02-15T05:30:55.923Z,1014.74
2023-02-15T05:31:56.004Z,1014.68
2023-02-15T05:32:55.807Z,1014.68
2023-02-15T05:33:55.703Z,1014.71
2023-02-15T05:34:55.673Z,1014.66
2023-02-15T05:35:55.629Z,1014.69
2023-02-15T05:36:55.595Z,1014.7
2023-02-15T05:37:55.564Z,1014.63
2023-02-15T05:38:55.551Z,1014.64
2023-02-15T05:39:55.488Z,1014.59
2023-02-15T05:40:55.456Z,1014.6
2023-02-15T05:41:55.416Z,1014.58
2023-02-15T05:42:55.383Z,1014.54
2023-02-15T05:43:55.345Z,1014.54
2023-02-15T05:44:55.310Z,1014.51
2023-02-15T05:45:55.323Z,1014.52
2023-02-15T05:46:55.239Z,1014.49
2023-02-15T05:47:55.201Z,1014.49
2023-02-15T05:48:55.168Z,1014.48
2023-02-15T05:49:55.129Z,1014.53
2023-02-15T05:50:55.095Z,1014.5
2023-02-15T05:51:55.062Z,1014.47
2023-02-15T05:52:55.024Z,1014.48
2023-02-15T05:53:54.986Z,1014.48
2023-02-15T05:54:54.976Z,1014.51
2023-02-15T05:55:54.923Z,1014.49
2023-02-15T05:56:54.885Z,1014.48
2023-02-15T05:57:54.846Z,1014.46
2023-02-15T05:58:54.828Z,1014.47
2023-02-15T05:59:54.771Z,1014.43
2023-02-15T06:00:54.744Z,1014.47
2023-02-15T06:01:54.702Z,1014.43
2023-02-15T06:02:54.670Z,1014.42
2023-02-15T06:03:54.657Z,1014.43
2023-02-15T06:04:54.594Z,1014.46
2023-02-15T06:05:54.556Z,1014.44
2023-02-15T06:06:54.522Z,1014.48
2023-02-15T06:07:54.484Z,1014.47
2023-02-15T06:08:54.449Z,1014.46
2023-02-15T06:09:54.415Z,1014.42
2023-02-15T06:10:54.405Z,1014.41
2023-02-15T06:11:54.343Z,1014.41
2023-02-15T06:12:54.306Z,1014.41
2023-02-15T06:13:54.273Z,1014.43
2023-02-15T06:14:54.237Z,1014.4
2023-02-15T06:15:54.223Z,1014.39
2023-02-15T06:16:54.163Z,1014.39
2023-02-15T06:17:54.129Z,1014.38
2023-02-15T06:18:54.093Z,1014.38
2023-02-15T06:19:54.058Z,1014.4
2023-02-15T06:20:54.022Z,1014.43
2023-02-15T06:21:53.985Z,1014.46
2023-02-15T06:22:53.952Z,1014.45
2023-02-15T06:23:53.916Z,1014.44
2023-02-15T06:24:53.879Z,1014.44
2023-02-15T06:25:53.844Z,1014.49
2023-02-15T06:26:53.832Z,1014.49
2023-02-15T06:27:53.793Z,1014.48
2023-02-15T06:28:53.736Z,1014.51
2023-02-15T06:29:53.720Z,1014.49
2023-02-15T06:30:53.857Z,1014.52
2023-02-15T06:31:53.778Z,1014.49
2023-02-15T06:32:53.592Z,1014.49
2023-02-15T06:33:53.561Z,1014.49
2023-02-15T06:34:53.526Z,1014.48
2023-02-15T06:35:53.485Z,1014.5
2023-02-15T06:36:53.461Z,1014.51
2023-02-15T06:37:53.413Z,1014.52
2023-02-15T06:38:53.376Z,1014.51
2023-02-15T06:39:53.341Z,1014.49
2023-02-15T06:40:53.311Z,1014.53
2023-02-15T06:41:53.269Z,1014.52
2023-02-15T06:42:53.256Z,1014.49
2023-02-15T06:43:53.201Z,1014.48
2023-02-15T06:44:53.163Z,1014.46
2023-02-15T06:45:53.128Z,1014.46
2023-02-15T06:46:53.091Z,1014.45
2023-02-15T06:47:53.066Z,1014.42
2023-02-15T06:48:53.019Z,1014.43
2023-02-15T06:49:52.988Z,1014.48
2023-02-15T06:50:52.947Z,1014.46
2023-02-15T06:51:52.919Z,1014.5
2023-02-15T06:52:52.878Z,1014.48
2023-02-15T06:53:52.842Z,1014.49
2023-02-15T06:54:52.806Z,1014.51
2023-02-15T06:55:52.771Z,1014.5
2023-02-15T06:56:52.740Z,1014.49
2023-02-15T06:57:52.703Z,1014.49
2023-02-15T06:58:52.687Z,1014.48
2023-02-15T06:59:52.626Z,1014.52
2023-02-15T07:00:52.592Z,1014.5
2023-02-15T07:01:52.689Z,1014.53
2023-02-15T07:02:52.521Z,1014.51
2023-02-15T07:03:52.490Z,1014.54
2023-02-15T07:04:52.476Z,1014.53
2023-02-15T07:05:52.413Z,1014.5
2023-02-15T07:06:53.966Z,1014.56
2023-02-15T07:07:52.341Z,1014.57
2023-02-15T07:08:52.304Z,1014.54
2023-02-15T07:09:52.276Z,1014.51
2023-02-15T07:10:52.233Z,1014.55
2023-02-15T07:11:52.197Z,1014.51
2023-02-15T07:12:52.163Z,1014.5
2023-02-15T07:13:52.125Z,1014.49
2023-02-15T07:14:52.122Z,1014.51
2023-02-15T07:15:52.094Z,1014.52
2023-02-15T07:16:52.019Z,1014.47
2023-02-15T07:17:52.010Z,1014.51
2023-02-15T07:18:51.948Z,1014.5
2023-02-15T07:19:51.912Z,1014.5
2023-02-15T07:20:51.879Z,1014.49
2023-02-15T07:21:51.842Z,1014.5
2023-02-15T07:22:51.810Z,1014.46
2023-02-15T07:23:51.775Z,1014.46
2023-02-15T07:24:51.738Z,1014.41
2023-02-15T07:25:51.700Z,1014.42
2023-02-15T07:26:51.668Z,1014.4
2023-02-15T07:27:51.631Z,1014.39
2023-02-15T07:28:51.596Z,1014.41
2023-02-15T07:29:51.581Z,1014.39
2023-02-15T07:30:51.593Z,1014.41
2023-02-15T07:31:51.493Z,1014.4
2023-02-15T07:32:51.455Z,1014.41
2023-02-15T07:33:51.507Z,1014.38
2023-02-15T07:34:51.384Z,1014.39
2023-02-15T07:35:51.386Z,1014.36
2023-02-15T07:36:51.315Z,1014.36
2023-02-15T07:37:51.279Z,1014.34
2023-02-15T07:38:51.245Z,1014.35
2023-02-15T07:39:51.212Z,1014.32
2023-02-15T07:40:51.176Z,1014.33
2023-02-15T07:41:51.150Z,1014.3
2023-02-15T07:42:52.727Z,1014.31
2023-02-15T07:43:51.096Z,1014.32
2023-02-15T07:44:51.039Z,1014.28
2023-02-15T07:45:51.004Z,1014.29
2023-02-15T07:46:51.026Z,1014.28
2023-02-15T07:47:50.937Z,1014.27
2023-02-15T07:48:50.897Z,1014.23
2023-02-15T07:49:50.878Z,1014.22
2023-02-15T07:50:50.825Z,1014.2
2023-02-15T07:51:50.796Z,1014.16
2023-02-15T07:52:50.756Z,1014.19
2023-02-15T07:53:50.725Z,1014.16
2023-02-15T07:54:50.687Z,1014.16
2023-02-15T07:55:50.656Z,1014.16
2023-02-15T07:56:50.653Z,1014.15
2023-02-15T07:57:50.591Z,1014.12
2023-02-15T07:58:50.546Z,1014.1
2023-02-15T07:59:50.522Z,1014.14
2023-02-15T08:00:50.485Z,1014.11
2023-02-15T08:01:50.455Z,1014.09
2023-02-15T08:02:50.529Z,1014.1
2023-02-15T08:03:50.469Z,1014.08
2023-02-15T08:04:50.340Z,1014.07
2023-02-15T08:05:50.306Z,1014.04
2023-02-15T08:06:50.273Z,1014.03
2023-02-15T08:07:50.238Z,1014
2023-02-15T08:08:50.202Z,1014.02
2023-02-15T08:09:50.168Z,1014.02
2023-02-15T08:10:50.134Z,1014
2023-02-15T08:11:50.110Z,1013.98
2023-02-15T08:12:50.067Z,1013.98
2023-02-15T08:13:50.033Z,1013.99
2023-02-15T08:14:50.002Z,1013.97
2023-02-15T08:15:49.966Z,1013.93
2023-02-15T08:16:50.116Z,1013.91
2023-02-15T08:17:49.906Z,1013.9
2023-02-15T08:18:49.890Z,1013.94
2023-02-15T08:19:49.830Z,1013.89
2023-02-15T08:20:49.792Z,1013.85
2023-02-15T08:21:49.762Z,1013.85
2023-02-15T08:22:49.728Z,1013.85
2023-02-15T08:23:49.696Z,1013.81
2023-02-15T08:24:49.662Z,1013.83
2023-02-15T08:25:49.631Z,1013.81
2023-02-15T08:26:49.589Z,1013.78
2023-02-15T08:27:49.556Z,1013.82
2023-02-15T08:28:49.522Z,1013.78
2023-02-15T08:29:49.500Z,1013.74
2023-02-15T08:30:49.460Z,1013.77
2023-02-15T08:31:49.512Z,1013.77
2023-02-15T08:32:49.396Z,1013.76
2023-02-15T08:33:49.355Z,1013.82
2023-02-15T08:34:49.363Z,1013.83
2023-02-15T08:35:49.290Z,1013.8
2023-02-15T08:36:49.253Z,1013.84
2023-02-15T08:37:49.221Z,1013.8
2023-02-15T08:38:49.184Z,1013.86
2023-02-15T08:39:49.152Z,1013.87
2023-02-15T08:40:49.118Z,1013.8
2023-02-15T08:41:49.086Z,1013.78
2023-02-15T08:42:49.058Z,1013.82
2023-02-15T08:43:49.016Z,1013.8
2023-02-15T08:44:50.389Z,1013.82
2023-02-15T08:45:48.956Z,1013.83
2023-02-15T08:46:48.927Z,1013.82
2023-02-15T08:47:48.884Z,1013.8
2023-02-15T08:48:48.872Z,1013.8
2023-02-15T08:49:48.819Z,1013.84
2023-02-15T08:50:48.807Z,1013.79
2023-02-15T08:51:48.745Z,1013.79
2023-02-15T08:52:48.727Z,1013.74
2023-02-15T08:53:48.680Z,1013.76
2023-02-15T08:54:48.647Z,1013.71
2023-02-15T08:55:48.613Z,1013.69
2023-02-15T08:56:48.588Z,1013.69
2023-02-15T08:57:48.549Z,1013.7
2023-02-15T08:58:48.514Z,1013.71
2023-02-15T08:59:48.491Z,1013.67
2023-02-15T09:00:48.503Z,1013.68
2023-02-15T09:01:48.417Z,1013.67
2023-02-15T09:02:48.414Z,1013.66
2023-02-15T09:03:48.346Z,1013.67
2023-02-15T09:04:48.318Z,1013.64
2023-02-15T09:05:48.280Z,1013.65
2023-02-15T09:06:49.216Z,1013.63
2023-02-15T09:07:48.213Z,1013.66
2023-02-15T09:08:48.182Z,1013.68
2023-02-15T09:09:48.147Z,1013.62
2023-02-15T09:10:48.116Z,1013.61
2023-02-15T09:11:48.084Z,1013.62
2023-02-15T09:12:48.050Z,1013.6
2023-02-15T09:13:48.017Z,1013.59
2023-02-15T09:14:47.987Z,1013.62
2023-02-15T09:15:47.950Z,1013.61
2023-02-15T09:16:47.972Z,1013.57
2023-02-15T09:17:47.888Z,1013.57
2023-02-15T09:18:47.853Z,1013.6
2023-02-15T09:19:47.835Z,1013.58
2023-02-15T09:20:47.788Z,1013.55
2023-02-15T09:21:47.764Z,1013.51
2023-02-15T09:22:47.754Z,1013.52
2023-02-15T09:23:47.691Z,1013.53
2023-02-15T09:24:47.657Z,1013.5
2023-02-15T09:25:47.625Z,1013.51
2023-02-15T09:26:47.598Z,1013.51
2023-02-15T09:27:47.558Z,1013.48
2023-02-15T09:28:47.527Z,1013.49
2023-02-15T09:29:47.495Z,1013.45
2023-02-15T09:30:47.572Z,1013.44
2023-02-15T09:31:47.501Z,1013.44
2023-02-15T09:32:47.399Z,1013.39
2023-02-15T09:33:47.366Z,1013.43
2023-02-15T09:34:47.334Z,1013.42
2023-02-15T09:35:47.307Z,1013.45
2023-02-15T09:36:47.270Z,1013.41
2023-02-15T09:37:47.241Z,1013.42
2023-02-15T09:38:47.236Z,1013.43
2023-02-15T09:39:49.058Z,1013.4
2023-02-15T09:40:47.141Z,1013.4
2023-02-15T09:41:47.109Z,1013.41
2023-02-15T09:42:47.077Z,1013.44
2023-02-15T09:43:47.052Z,1013.45
2023-02-15T09:44:47.021Z,1013.45
2023-02-15T09:45:46.994Z,1013.44
2023-02-15T09:46:46.949Z,1013.46
2023-02-15T09:47:46.927Z,1013.44
2023-02-15T09:48:46.886Z,1013.43
2023-02-15T09:49:46.856Z,1013.45
2023-02-15T09:50:46.824Z,1013.45
2023-02-15T09:51:46.843Z,1013.43
2023-02-15T09:52:46.762Z,1013.47
2023-02-15T09:53:46.732Z,1013.49
2023-02-15T09:54:46.736Z,1013.48
2023-02-15T09:55:46.668Z,1013.49
2023-02-15T09:56:46.639Z,1013.49
2023-02-15T09:57:46.697Z,1013.45
2023-02-15T09:58:46.581Z,1013.45
2023-02-15T09:59:46.544Z,1013.45
2023-02-15T10:00:46.513Z,1013.45
2023-02-15T10:01:46.550Z,1013.41
2023-02-15T10:02:46.449Z,1013.41
2023-02-15T10:03:46.436Z,1013.4
2023-02-15T10:04:46.513Z,1013.39
2023-02-15T10:05:46.360Z,1013.39
2023-02-15T10:06:46.343Z,1013.37
2023-02-15T10:07:46.298Z,1013.44
2023-02-15T10:08:46.266Z,1013.42
2023-02-15T10:09:46.242Z,1013.41
2023-02-15T10:10:46.253Z,1013.43
2023-02-15T10:11:46.177Z,1013.4
2023-02-15T10:12:46.144Z,1013.42
2023-02-15T10:13:46.115Z,1013.41
2023-02-15T10:14:46.085Z,1013.42
2023-02-15T10:15:46.054Z,1013.4
2023-02-15T10:16:46.176Z,1013.39
2023-02-15T10:17:45.996Z,1013.42
2023-02-15T10:18:45.961Z,1013.44
2023-02-15T10:19:45.931Z,1013.44
2023-02-15T10:20:45.897Z,1013.47
2023-02-15T10:21:45.869Z,1013.48
2023-02-15T10:22:45.836Z,1013.52
2023-02-15T10:23:45.809Z,1013.5
2023-02-15T10:24:48.541Z,1013.52
2023-02-15T10:25:45.766Z,1013.51
2023-02-15T10:26:45.746Z,1013.5
2023-02-15T10:27:45.691Z,1013.5
2023-02-15T10:28:45.659Z,1013.51
2023-02-15T10:29:45.628Z,1013.52
2023-02-15T10:30:45.737Z,1013.49
2023-02-15T10:31:45.729Z,1013.44
2023-02-15T10:32:45.535Z,1013.5
2023-02-15T10:33:45.506Z,1013.48
2023-02-15T10:34:45.483Z,1013.48
2023-02-15T10:35:45.444Z,1013.49
2023-02-15T10:36:45.415Z,1013.5
2023-02-15T10:37:45.389Z,1013.49
2023-02-15T10:38:45.361Z,1013.47
2023-02-15T10:39:45.325Z,1013.46
2023-02-15T10:40:45.295Z,1013.45
2023-02-15T10:41:47.108Z,1013.42
2023-02-15T10:42:45.269Z,1013.4
2023-02-15T10:43:45.204Z,1013.39
2023-02-15T10:44:45.177Z,1013.34
2023-02-15T10:45:45.196Z,1013.3
2023-02-15T10:46:45.118Z,1013.31
2023-02-15T10:47:45.085Z,1013.29
2023-02-15T10:48:45.058Z,1013.31
2023-02-15T10:49:45.030Z,1013.29
2023-02-15T10:50:45.000Z,1013.27
2023-02-15T10:51:44.981Z,1013.27
2023-02-15T10:52:44.940Z,1013.27
2023-02-15T10:53:44.916Z,1013.29
2023-02-15T10:54:44.884Z,1013.32
2023-02-15T10:55:44.855Z,1013.28
2023-02-15T10:56:44.828Z,1013.26
2023-02-15T10:57:44.796Z,1013.28
2023-02-15T10:58:44.803Z,1013.27
2023-02-15T10:59:44.735Z,1013.29
2023-02-15T11:00:44.716Z,1013.27
2023-02-15T11:01:44.742Z,1013.28
2023-02-15T11:02:44.649Z,1013.31
2023-02-15T11:03:44.621Z,1013.28
2023-02-15T11:04:44.616Z,1013.31
2023-02-15T11:05:44.567Z,1013.27
2023-02-15T11:06:44.540Z,1013.26
2023-02-15T11:07:45.514Z,1013.25
2023-02-15T11:08:44.481Z,1013.22
2023-02-15T11:09:44.446Z,1013.26
2023-02-15T11:10:44.418Z,1013.24
2023-02-15T11:11:44.388Z,1013.27
2023-02-15T11:12:44.361Z,1013.29
2023-02-15T11:13:44.333Z,1013.23
2023-02-15T11:14:44.496Z,1013.19
2023-02-15T11:15:44.319Z,1013.21
2023-02-15T11:16:44.247Z,1013.21
2023-02-15T11:17:44.379Z,1013.19
2023-02-15T11:18:44.191Z,1013.18
2023-02-15T11:19:44.162Z,1013.17
2023-02-15T11:20:44.137Z,1013.15
2023-02-15T11:21:44.107Z,1013.13
2023-02-15T11:22:44.105Z,1013.15
2023-02-15T11:23:44.049Z,1013.13
2023-02-15T11:24:44.021Z,1013.14
2023-02-15T11:25:43.994Z,1013.1
2023-02-15T11:26:43.966Z,1013.11
2023-02-15T11:27:45.093Z,1013.09
2023-02-15T11:28:43.907Z,1013.06
2023-02-15T11:29:43.882Z,1013.05
2023-02-15T11:30:44.194Z,1013.1
2023-02-15T11:31:43.986Z,1013.05
2023-02-15T11:32:43.796Z,1013.06
2023-02-15T11:33:43.774Z,1013.04
2023-02-15T11:34:43.741Z,1013.02
2023-02-15T11:35:43.716Z,1013.01
2023-02-15T11:36:43.685Z,1012.98
2023-02-15T11:37:43.658Z,1012.99
2023-02-15T11:38:43.627Z,1012.98
2023-02-15T11:39:43.602Z,1012.98
2023-02-15T11:40:43.572Z,1012.97
2023-02-15T11:41:43.546Z,1012.97
2023-02-15T11:42:43.518Z,1012.99
2023-02-15T11:43:43.502Z,1013.02
2023-02-15T11:44:43.461Z,1013
2023-02-15T11:45:43.436Z,1013.03
2023-02-15T11:46:43.557Z,1013.02
2023-02-15T11:47:43.380Z,1013.03
2023-02-15T11:48:43.351Z,1013.04
2023-02-15T11:49:43.324Z,1013.01
2023-02-15T11:50:43.296Z,1013.03
2023-02-15T11:51:43.272Z,1013.04
2023-02-15T11:52:43.241Z,1012.98
2023-02-15T11:53:43.215Z,1012.98
2023-02-15T11:54:43.188Z,1012.98
2023-02-15T11:55:43.160Z,1012.95
2023-02-15T11:56:43.132Z,1012.93
2023-02-15T11:57:43.110Z,1012.89
2023-02-15T11:58:43.078Z,1012.88
2023-02-15T11:59:43.078Z,1012.84
2023-02-15T12:00:43.035Z,1012.85
2023-02-15T12:01:43.004Z,1012.82
2023-02-15T12:02:43.080Z,1012.77
2023-02-15T12:03:43.009Z,1012.77
2023-02-15T12:04:42.917Z,1012.73
2023-02-15T12:05:42.890Z,1012.71
2023-02-15T12:06:42.860Z,1012.74
2023-02-15T12:07:42.842Z,1012.75